Terminal Aerodrome Forecast
Issued by NWS Jackson, MS

Home | Current Version | Previous Version | Text Only | Print | Product List | Glossary On
Versions: 1 2 3 4 5 6 7 8 9 10 11 12
000
FTUS44 KJAN 291100
TAFGWO
TAF
KGWO 291137Z 2912/3012 VRB03KT P6SM BKN250
     FM291430 20005KT P6SM SCT040 SCT250
     FM291900 19007KT P6SM VCTS BKN050CB BKN250
     FM300000 16004KT P6SM OVC200
     FM301100 17003KT P6SM VCSH BKN100=

USA.gov is the U.S. government's official web portal to all federal, state and local government web resources and services.